sensor_id;sensor_type;location;lat;lon;timestamp;pressure;altitude;pressure_sealevel;temperature;humidity
35892;BME280;21993;42.672;23.296;2022-10-31T00:01:26;95178.38;;;17.83;45.85
35892;BME280;21993;42.672;23.296;2022-10-31T00:03:52;95179.22;;;17.76;46.01
35892;BME280;21993;42.672;23.296;2022-10-31T00:06:18;95175.88;;;17.73;46.13
35892;BME280;21993;42.672;23.296;2022-10-31T00:08:52;95178.88;;;17.79;45.88
35892;BME280;21993;42.672;23.296;2022-10-31T00:11:18;95175.03;;;17.73;46.08
35892;BME280;21993;42.672;23.296;2022-10-31T00:13:43;95180.88;;;17.77;46.09
35892;BME280;21993;42.672;23.296;2022-10-31T00:16:23;95182.19;;;17.81;46.06
35892;BME280;21993;42.672;23.296;2022-10-31T00:18:53;95172.25;;;17.75;46.31
35892;BME280;21993;42.672;23.296;2022-10-31T00:21:20;95176.72;;;17.74;46.18
35892;BME280;21993;42.672;23.296;2022-10-31T00:23:45;95182.53;;;17.78;46.32
35892;BME280;21993;42.672;23.296;2022-10-31T00:26:11;95178.53;;;17.73;46.50
35892;BME280;21993;42.672;23.296;2022-10-31T00:28:36;95176.06;;;17.72;46.37
35892;BME280;21993;42.672;23.296;2022-10-31T00:31:04;95168.59;;;17.76;46.46
35892;BME280;21993;42.672;23.296;2022-10-31T00:33:30;95169.22;;;17.69;46.72
35892;BME280;21993;42.672;23.296;2022-10-31T00:35:56;95169.22;;;17.61;47.01
35892;BME280;21993;42.672;23.296;2022-10-31T00:38:21;95168.41;;;17.61;47.12
35892;BME280;21993;42.672;23.296;2022-10-31T00:40:47;95173.19;;;17.65;47.00
35892;BME280;21993;42.672;23.296;2022-10-31T00:43:12;95167.06;;;17.65;46.83
35892;BME280;21993;42.672;23.296;2022-10-31T00:45:38;95165.09;;;17.59;47.34
35892;BME280;21993;42.672;23.296;2022-10-31T00:48:03;95156.13;;;17.52;47.25
35892;BME280;21993;42.672;23.296;2022-10-31T00:50:29;95157.97;;;17.51;47.35
35892;BME280;21993;42.672;23.296;2022-10-31T00:52:55;95157.97;;;17.51;47.38
35892;BME280;21993;42.672;23.296;2022-10-31T00:55:20;95158.28;;;17.48;47.59
35892;BME280;21993;42.672;23.296;2022-10-31T00:57:46;95170.72;;;17.48;47.67
35892;BME280;21993;42.672;23.296;2022-10-31T01:00:13;95162.63;;;17.49;47.84
35892;BME280;21993;42.672;23.296;2022-10-31T01:02:38;95170.06;;;17.54;47.68
35892;BME280;21993;42.672;23.296;2022-10-31T01:05:04;95168.06;;;17.56;47.66
35892;BME280;21993;42.672;23.296;2022-10-31T01:07:29;95160.28;;;17.54;47.62
35892;BME280;21993;42.672;23.296;2022-10-31T01:09:55;95165.28;;;17.49;47.64
35892;BME280;21993;42.672;23.296;2022-10-31T01:12:20;95167.75;;;17.42;48.04
35892;BME280;21993;42.672;23.296;2022-10-31T01:14:45;95170.91;;;17.46;47.94
35892;BME280;21993;42.672;23.296;2022-10-31T01:17:12;95171.22;;;17.43;48.12
35892;BME280;21993;42.672;23.296;2022-10-31T01:19:41;95171.56;;;17.40;48.14
35892;BME280;21993;42.672;23.296;2022-10-31T01:22:06;95177.84;;;17.47;47.90
35892;BME280;21993;42.672;23.296;2022-10-31T01:24:32;95182.34;;;17.38;48.01
35892;BME280;21993;42.672;23.296;2022-10-31T01:26:57;95174.88;;;17.42;48.10
35892;BME280;21993;42.672;23.296;2022-10-31T01:29:22;95178.84;;;17.46;47.95
35892;BME280;21993;42.672;23.296;2022-10-31T01:31:48;95175.72;;;17.42;48.57
35892;BME280;21993;42.672;23.296;2022-10-31T01:34:15;95176.72;;;17.41;48.75
35892;BME280;21993;42.672;23.296;2022-10-31T01:36:42;95185.69;;;17.40;48.55
35892;BME280;21993;42.672;23.296;2022-10-31T01:39:12;95183.03;;;17.40;48.92
35892;BME280;21993;42.672;23.296;2022-10-31T01:41:41;95182.69;;;17.35;49.16
35892;BME280;21993;42.672;23.296;2022-10-31T01:47:01;95186.16;;;17.36;48.84
35892;BME280;21993;42.672;23.296;2022-10-31T01:49:36;95182.16;;;17.32;49.39
35892;BME280;21993;42.672;23.296;2022-10-31T01:52:19;95188.00;;;17.35;49.50
35892;BME280;21993;42.672;23.296;2022-10-31T01:54:48;95186.34;;;17.34;49.58
35892;BME280;21993;42.672;23.296;2022-10-31T01:57:17;95183.84;;;17.33;49.65
35892;BME280;21993;42.672;23.296;2022-10-31T01:59:47;95187.47;;;17.32;49.78
35892;BME280;21993;42.672;23.296;2022-10-31T02:02:14;95186.81;;;17.38;49.99
35892;BME280;21993;42.672;23.296;2022-10-31T02:04:41;95179.50;;;17.40;49.89
35892;BME280;21993;42.672;23.296;2022-10-31T02:07:13;95178.53;;;17.41;50.01
35892;BME280;21993;42.672;23.296;2022-10-31T02:09:40;95173.06;;;17.34;50.01
35892;BME280;21993;42.672;23.296;2022-10-31T02:12:06;95175.38;;;17.37;49.93
35892;BME280;21993;42.672;23.296;2022-10-31T02:14:35;95175.53;;;17.44;49.92
35892;BME280;21993;42.672;23.296;2022-10-31T02:17:01;95178.53;;;17.41;50.50
35892;BME280;21993;42.672;23.296;2022-10-31T02:19:31;95175.72;;;17.42;50.46
35892;BME280;21993;42.672;23.296;2022-10-31T02:22:08;95173.53;;;17.46;50.58
35892;BME280;21993;42.672;23.296;2022-10-31T02:28:05;95183.50;;;17.44;50.61
35892;BME280;21993;42.672;23.296;2022-10-31T02:30:18;95183.69;;;17.42;50.74
35892;BME280;21993;42.672;23.296;2022-10-31T02:38:15;95185.00;;;17.47;50.59
35892;BME280;21993;42.672;23.296;2022-10-31T02:41:01;95192.66;;;17.50;50.73
35892;BME280;21993;42.672;23.296;2022-10-31T02:43:43;95194.94;;;17.44;50.58
35892;BME280;21993;42.672;23.296;2022-10-31T02:46:27;95195.94;;;17.52;50.73
35892;BME280;21993;42.672;23.296;2022-10-31T02:49:02;95196.44;;;17.55;50.92
35892;BME280;21993;42.672;23.296;2022-10-31T02:51:30;95200.75;;;17.48;50.88
35892;BME280;21993;42.672;23.296;2022-10-31T02:53:55;95201.91;;;17.45;50.85
35892;BME280;21993;42.672;23.296;2022-10-31T02:56:21;95208.72;;;17.48;51.19
35892;BME280;21993;42.672;23.296;2022-10-31T02:58:53;95211.38;;;17.48;50.84
35892;BME280;21993;42.672;23.296;2022-10-31T03:12:07;95220.19;;;17.40;51.15
35892;BME280;21993;42.672;23.296;2022-10-31T03:20:26;95211.72;;;17.45;51.50
35892;BME280;21993;42.672;23.296;2022-10-31T03:22:54;95204.91;;;17.42;51.30
35892;BME280;21993;42.672;23.296;2022-10-31T03:25:20;95212.06;;;17.50;51.28
35892;BME280;21993;42.672;23.296;2022-10-31T03:27:46;95219.66;;;17.45;51.44
35892;BME280;21993;42.672;23.296;2022-10-31T03:30:13;95228.63;;;17.36;51.28
35892;BME280;21993;42.672;23.296;2022-10-31T03:32:45;95224.31;;;17.43;51.51
35892;BME280;21993;42.672;23.296;2022-10-31T03:35:15;95221.84;;;17.41;51.79
35892;BME280;21993;42.672;23.296;2022-10-31T03:37:42;95214.00;;;17.40;51.83
35892;BME280;21993;42.672;23.296;2022-10-31T03:40:10;95227.97;;;17.34;51.63
35892;BME280;21993;42.672;23.296;2022-10-31T03:42:43;95227.78;;;17.27;52.21
35892;BME280;21993;42.672;23.296;2022-10-31T03:45:17;95235.91;;;17.26;51.83
35892;BME280;21993;42.672;23.296;2022-10-31T03:47:46;95231.25;;;17.28;52.03
35892;BME280;21993;42.672;23.296;2022-10-31T03:50:13;95238.75;;;17.24;51.98
35892;BME280;21993;42.672;23.296;2022-10-31T03:53:13;95244.03;;;17.24;52.01
35892;BME280;21993;42.672;23.296;2022-10-31T03:55:44;95239.88;;;17.22;52.27
35892;BME280;21993;42.672;23.296;2022-10-31T03:58:20;95248.19;;;17.27;52.66
35892;BME280;21993;42.672;23.296;2022-10-31T04:00:49;95241.38;;;17.16;52.37
35892;BME280;21993;42.672;23.296;2022-10-31T04:03:20;95245.84;;;17.15;52.40
35892;BME280;21993;42.672;23.296;2022-10-31T04:05:49;95246.97;;;17.13;52.04
35892;BME280;21993;42.672;23.296;2022-10-31T04:08:20;95250.81;;;17.10;52.38
35892;BME280;21993;42.672;23.296;2022-10-31T04:10:48;95253.75;;;16.99;52.79
35892;BME280;21993;42.672;23.296;2022-10-31T04:13:18;95251.59;;;17.03;52.60
35892;BME280;21993;42.672;23.296;2022-10-31T04:15:45;95250.13;;;17.08;52.64
35892;BME280;21993;42.672;23.296;2022-10-31T04:18:11;95248.13;;;17.02;52.39
35892;BME280;21993;42.672;23.296;2022-10-31T04:20:39;95262.03;;;16.96;52.91
35892;BME280;21993;42.672;23.296;2022-10-31T04:23:16;95250.72;;;16.86;53.16
35892;BME280;21993;42.672;23.296;2022-10-31T04:25:43;95253.72;;;16.83;53.05
35892;BME280;21993;42.672;23.296;2022-10-31T04:28:08;95254.19;;;16.78;53.27
35892;BME280;21993;42.672;23.296;2022-10-31T04:30:34;95262.63;;;16.74;53.50
35892;BME280;21993;42.672;23.296;2022-10-31T04:32:59;95258.28;;;16.73;53.63
35892;BME280;21993;42.672;23.296;2022-10-31T04:35:24;95256.97;;;16.69;53.73
35892;BME280;21993;42.672;23.296;2022-10-31T04:37:50;95253.31;;;16.70;53.95
35892;BME280;21993;42.672;23.296;2022-10-31T04:40:15;95258.72;;;16.60;54.05
35892;BME280;21993;42.672;23.296;2022-10-31T04:42:41;95256.91;;;16.60;53.43
35892;BME280;21993;42.672;23.296;2022-10-31T04:45:06;95254.56;;;16.57;54.14
35892;BME280;21993;42.672;23.296;2022-10-31T04:47:32;95258.72;;;16.60;53.88
35892;BME280;21993;42.672;23.296;2022-10-31T04:49:58;95264.13;;;16.50;54.46
35892;BME280;21993;42.672;23.296;2022-10-31T04:52:23;95265.13;;;16.49;54.17
35892;BME280;21993;42.672;23.296;2022-10-31T04:54:49;95260.28;;;16.45;54.55
35892;BME280;21993;42.672;23.296;2022-10-31T04:57:14;95267.75;;;16.41;54.84
35892;BME280;21993;42.672;23.296;2022-10-31T04:59:40;95266.59;;;16.44;54.79
35892;BME280;21993;42.672;23.296;2022-10-31T05:02:05;95276.06;;;16.54;54.39
35892;BME280;21993;42.672;23.296;2022-10-31T05:04:30;95275.03;;;16.47;54.69
35892;BME280;21993;42.672;23.296;2022-10-31T05:06:56;95286.13;;;16.43;54.62
35892;BME280;21993;42.672;23.296;2022-10-31T05:09:21;95275.38;;;16.44;54.66
35892;BME280;21993;42.672;23.296;2022-10-31T05:11:47;95283.31;;;16.44;54.82
35892;BME280;21993;42.672;23.296;2022-10-31T05:14:12;95290.59;;;16.42;54.63
35892;BME280;21993;42.672;23.296;2022-10-31T05:16:37;95289.72;;;16.33;54.95
35892;BME280;21993;42.672;23.296;2022-10-31T05:19:03;95296.06;;;16.41;54.83
35892;BME280;21993;42.672;23.296;2022-10-31T05:21:28;95295.38;;;16.39;54.94
35892;BME280;21993;42.672;23.296;2022-10-31T05:23:53;95285.53;;;16.31;55.06
35892;BME280;21993;42.672;23.296;2022-10-31T05:26:19;95290.88;;;16.39;54.97
35892;BME280;21993;42.672;23.296;2022-10-31T05:28:44;95292.38;;;16.33;55.03
35892;BME280;21993;42.672;23.296;2022-10-31T05:31:10;95298.66;;;16.32;55.19
35892;BME280;21993;42.672;23.296;2022-10-31T05:33:35;95299.28;;;16.26;55.43
35892;BME280;21993;42.672;23.296;2022-10-31T05:36:00;95302.91;;;16.25;55.22
35892;BME280;21993;42.672;23.296;2022-10-31T05:38:26;95314.28;;;16.18;55.66
35892;BME280;21993;42.672;23.296;2022-10-31T05:40:54;95310.66;;;16.19;55.82
35892;BME280;21993;42.672;23.296;2022-10-31T05:43:22;95308.16;;;16.17;55.53
35892;BME280;21993;42.672;23.296;2022-10-31T05:45:52;95308.50;;;16.22;55.62
35892;BME280;21993;42.672;23.296;2022-10-31T05:48:17;95316.44;;;16.22;55.46
35892;BME280;21993;42.672;23.296;2022-10-31T05:50:43;95308.78;;;16.11;55.94
35892;BME280;21993;42.672;23.296;2022-10-31T05:53:08;95317.47;;;16.03;56.22
35892;BME280;21993;42.672;23.296;2022-10-31T05:55:34;95315.81;;;16.02;56.05
35892;BME280;21993;42.672;23.296;2022-10-31T05:57:59;95317.47;;;16.03;56.03
35892;BME280;21993;42.672;23.296;2022-10-31T06:00:25;95324.75;;;16.01;56.42
35892;BME280;21993;42.672;23.296;2022-10-31T06:03:20;95325.75;;;16.00;56.12
35892;BME280;21993;42.672;23.296;2022-10-31T06:05:46;95333.09;;;16.07;56.18
35892;BME280;21993;42.672;23.296;2022-10-31T06:08:11;95330.72;;;16.03;56.30
35892;BME280;21993;42.672;23.296;2022-10-31T06:10:37;95334.19;;;16.04;56.31
35892;BME280;21993;42.672;23.296;2022-10-31T06:13:02;95331.72;;;16.02;56.48
35892;BME280;21993;42.672;23.296;2022-10-31T06:15:27;95338.22;;;16.08;56.25
35892;BME280;21993;42.672;23.296;2022-10-31T06:18:05;95335.94;;;16.13;56.17
35892;BME280;21993;42.672;23.296;2022-10-31T06:20:31;95341.75;;;16.17;56.25
35892;BME280;21993;42.672;23.296;2022-10-31T06:22:57;95343.41;;;16.18;56.33
35892;BME280;21993;42.672;23.296;2022-10-31T06:25:23;95354.69;;;16.20;56.12
35892;BME280;21993;42.672;23.296;2022-10-31T06:27:49;95353.53;;;16.22;56.36
35892;BME280;21993;42.672;23.296;2022-10-31T06:30:14;95363.84;;;16.25;56.06
35892;BME280;21993;42.672;23.296;2022-10-31T06:32:40;95362.91;;;16.35;55.95
35892;BME280;21993;42.672;23.296;2022-10-31T06:35:05;95358.78;;;16.32;55.88
35892;BME280;21993;42.672;23.296;2022-10-31T06:37:31;95360.59;;;16.31;55.99
35892;BME280;21993;42.672;23.296;2022-10-31T06:39:56;95355.63;;;16.37;55.76
35892;BME280;21993;42.672;23.296;2022-10-31T06:42:22;95363.13;;;16.41;55.91
35892;BME280;21993;42.672;23.296;2022-10-31T06:44:47;95356.53;;;16.45;55.87
35892;BME280;21993;42.672;23.296;2022-10-31T06:47:12;95366.56;;;16.59;55.38
35892;BME280;21993;42.672;23.296;2022-10-31T06:49:38;95368.06;;;16.62;55.40
35892;BME280;21993;42.672;23.296;2022-10-31T06:52:04;95364.41;;;16.63;55.44
35892;BME280;21993;42.672;23.296;2022-10-31T06:54:30;95364.34;;;16.73;55.31
35892;BME280;21993;42.672;23.296;2022-10-31T06:56:55;95364.75;;;16.86;55.27
35892;BME280;21993;42.672;23.296;2022-10-31T06:59:21;95359.63;;;16.84;54.67
35892;BME280;21993;42.672;23.296;2022-10-31T07:01:46;95368.06;;;16.88;54.75
35892;BME280;21993;42.672;23.296;2022-10-31T07:04:12;95354.22;;;17.02;54.11
35892;BME280;21993;42.672;23.296;2022-10-31T07:06:38;95375.31;;;17.12;54.24
35892;BME280;21993;42.672;23.296;2022-10-31T07:09:04;95371.88;;;17.20;53.99
35892;BME280;21993;42.672;23.296;2022-10-31T07:11:29;95375.59;;;17.35;53.24
35892;BME280;21993;42.672;23.296;2022-10-31T07:13:54;95363.44;;;17.24;53.88
35892;BME280;21993;42.672;23.296;2022-10-31T07:16:24;95371.06;;;17.27;54.15
35892;BME280;21993;42.672;23.296;2022-10-31T07:18:49;95368.94;;;17.39;53.56
35892;BME280;21993;42.672;23.296;2022-10-31T07:21:15;95364.81;;;17.36;53.84
35892;BME280;21993;42.672;23.296;2022-10-31T07:23:41;95369.34;;;17.52;53.61
35892;BME280;21993;42.672;23.296;2022-10-31T07:26:09;95354.91;;;17.55;53.53
35892;BME280;21993;42.672;23.296;2022-10-31T07:28:35;95346.78;;;17.64;53.33
35892;BME280;21993;42.672;23.296;2022-10-31T07:31:00;95345.84;;;17.73;53.11
35892;BME280;21993;42.672;23.296;2022-10-31T07:33:26;95347.19;;;17.78;52.67
35892;BME280;21993;42.672;23.296;2022-10-31T07:35:52;95345.19;;;17.88;53.18
35892;BME280;21993;42.672;23.296;2022-10-31T07:38:17;95347.69;;;17.97;52.97
35892;BME280;21993;42.672;23.296;2022-10-31T07:40:49;95343.22;;;18.06;52.76
35892;BME280;21993;42.672;23.296;2022-10-31T07:43:16;95334.56;;;18.28;52.21
35892;BME280;21993;42.672;23.296;2022-10-31T07:45:42;95338.72;;;18.31;52.32
35892;BME280;21993;42.672;23.296;2022-10-31T07:48:07;95346.38;;;18.42;51.96
35892;BME280;21993;42.672;23.296;2022-10-31T07:50:33;95340.69;;;18.45;52.17
35892;BME280;21993;42.672;23.296;2022-10-31T07:55:28;95347.50;;;18.72;51.79
35892;BME280;21993;42.672;23.296;2022-10-31T07:57:59;95340.44;;;18.96;50.99
35892;BME280;21993;42.672;23.296;2022-10-31T08:00:24;95334.13;;;18.97;50.95
35892;BME280;21993;42.672;23.296;2022-10-31T08:03:08;95344.34;;;19.16;50.57
35892;BME280;21993;42.672;23.296;2022-10-31T08:05:35;95348.84;;;19.16;50.49
35892;BME280;21993;42.672;23.296;2022-10-31T08:08:01;95354.97;;;19.24;50.05
35892;BME280;21993;42.672;23.296;2022-10-31T08:10:27;95349.13;;;19.29;49.97
35892;BME280;21993;42.672;23.296;2022-10-31T08:13:04;95347.47;;;19.28;50.34
35892;BME280;21993;42.672;23.296;2022-10-31T08:15:30;95350.72;;;19.46;50.04
35892;BME280;21993;42.672;23.296;2022-10-31T08:17:56;95350.16;;;19.59;49.64
35892;BME280;21993;42.672;23.296;2022-10-31T08:20:22;95347.59;;;19.74;49.45
35892;BME280;21993;42.672;23.296;2022-10-31T08:22:55;95336.06;;;20.04;48.64
35892;BME280;21993;42.672;23.296;2022-10-31T08:25:22;95346.22;;;20.01;48.56
35892;BME280;21993;42.672;23.296;2022-10-31T08:27:52;95341.44;;;19.96;49.30
35892;BME280;21993;42.672;23.296;2022-10-31T08:30:19;95340.38;;;20.05;48.86
35892;BME280;21993;42.672;23.296;2022-10-31T08:32:45;95344.47;;;20.16;48.41
35892;BME280;21993;42.672;23.296;2022-10-31T08:35:10;95345.03;;;20.49;47.74
35892;BME280;21993;42.672;23.296;2022-10-31T08:37:36;95337.06;;;20.41;48.23
35892;BME280;21993;42.672;23.296;2022-10-31T08:40:02;95340.66;;;20.33;48.67
35892;BME280;21993;42.672;23.296;2022-10-31T08:42:27;95340.56;;;20.64;47.28
35892;BME280;21993;42.672;23.296;2022-10-31T08:44:52;95330.78;;;20.57;47.78
35892;BME280;21993;42.672;23.296;2022-10-31T08:47:18;95337.97;;;20.56;48.29
35892;BME280;21993;42.672;23.296;2022-10-31T08:49:43;95339.84;;;20.70;47.93
35892;BME280;21993;42.672;23.296;2022-10-31T08:52:09;95347.00;;;20.85;47.41
35892;BME280;21993;42.672;23.296;2022-10-31T08:54:34;95340.22;;;20.82;47.25
35892;BME280;21993;42.672;23.296;2022-10-31T08:56:59;95332.59;;;20.79;47.81
35892;BME280;21993;42.672;23.296;2022-10-31T08:59:25;95338.81;;;21.01;47.38
35892;BME280;21993;42.672;23.296;2022-10-31T09:01:50;95330.47;;;21.04;46.75
35892;BME280;21993;42.672;23.296;2022-10-31T09:04:15;95333.50;;;21.16;46.99
35892;BME280;21993;42.672;23.296;2022-10-31T09:06:41;95336.88;;;21.24;46.83
35892;BME280;21993;42.672;23.296;2022-10-31T09:09:06;95333.97;;;21.34;46.32
35892;BME280;21993;42.672;23.296;2022-10-31T09:11:32;95334.78;;;21.34;46.56
35892;BME280;21993;42.672;23.296;2022-10-31T09:13:58;95333.22;;;21.40;46.48
35892;BME280;21993;42.672;23.296;2022-10-31T09:16:23;95329.91;;;21.53;46.81
35892;BME280;21993;42.672;23.296;2022-10-31T09:22:23;95305.66;;;21.76;45.92
35892;BME280;21993;42.672;23.296;2022-10-31T09:30:58;95316.59;;;22.17;45.12
35892;BME280;21993;42.672;23.296;2022-10-31T09:33:46;95305.31;;;22.22;45.34
35892;BME280;21993;42.672;23.296;2022-10-31T09:39:14;95308.75;;;22.37;45.12
35892;BME280;21993;42.672;23.296;2022-10-31T09:47:25;95310.59;;;22.64;44.76
35892;BME280;21993;42.672;23.296;2022-10-31T09:52:33;95306.69;;;22.95;43.54
35892;BME280;21993;42.672;23.296;2022-10-31T09:58:27;95308.63;;;23.08;43.64
35892;BME280;21993;42.672;23.296;2022-10-31T10:01:14;95312.00;;;23.23;43.61
35892;BME280;21993;42.672;23.296;2022-10-31T10:07:54;95304.25;;;23.41;42.25
35892;BME280;21993;42.672;23.296;2022-10-31T10:10:56;95295.19;;;23.49;41.96
35892;BME280;21993;42.672;23.296;2022-10-31T10:13:59;95289.91;;;23.62;41.68
35892;BME280;21993;42.672;23.296;2022-10-31T10:29:50;95266.06;;;24.00;39.65
35892;BME280;21993;42.672;23.296;2022-10-31T10:32:48;95258.66;;;24.15;39.44
35892;BME280;21993;42.672;23.296;2022-10-31T10:35:38;95261.13;;;24.17;39.22
35892;BME280;21993;42.672;23.296;2022-10-31T10:38:53;95251.41;;;24.16;39.73
35892;BME280;21993;42.672;23.296;2022-10-31T10:41:23;95247.91;;;24.29;38.70
35892;BME280;21993;42.672;23.296;2022-10-31T10:43:50;95249.78;;;24.41;38.51
35892;BME280;21993;42.672;23.296;2022-10-31T10:46:24;95234.72;;;24.47;38.38
35892;BME280;21993;42.672;23.296;2022-10-31T10:57:42;95243.31;;;24.82;38.05
35892;BME280;21993;42.672;23.296;2022-10-31T11:00:31;95241.03;;;24.86;38.12
35892;BME280;21993;42.672;23.296;2022-10-31T11:03:08;95242.81;;;25.18;36.81
35892;BME280;21993;42.672;23.296;2022-10-31T11:06:02;95241.56;;;25.21;37.57
35892;BME280;21993;42.672;23.296;2022-10-31T11:08:29;95233.88;;;25.31;36.58
35892;BME280;21993;42.672;23.296;2022-10-31T11:11:27;95228.88;;;25.41;35.78
35892;BME280;21993;42.672;23.296;2022-10-31T11:14:15;95223.72;;;25.33;36.52
35892;BME280;21993;42.672;23.296;2022-10-31T11:17:29;95226.53;;;25.51;36.21
35892;BME280;21993;42.672;23.296;2022-10-31T11:22:47;95226.69;;;25.95;34.57
35892;BME280;21993;42.672;23.296;2022-10-31T11:25:25;95209.72;;;25.94;35.15
35892;BME280;21993;42.672;23.296;2022-10-31T11:28:24;95224.09;;;25.81;35.22
35892;BME280;21993;42.672;23.296;2022-10-31T11:31:00;95217.19;;;25.92;35.69
35892;BME280;21993;42.672;23.296;2022-10-31T11:36:18;95214.56;;;26.10;35.62
35892;BME280;21993;42.672;23.296;2022-10-31T11:38:46;95211.91;;;26.29;35.06
35892;BME280;21993;42.672;23.296;2022-10-31T11:41:36;95206.00;;;26.45;34.37
35892;BME280;21993;42.672;23.296;2022-10-31T11:46:39;95199.22;;;26.61;34.55
35892;BME280;21993;42.672;23.296;2022-10-31T11:49:10;95197.00;;;26.76;34.18
35892;BME280;21993;42.672;23.296;2022-10-31T11:51:37;95191.53;;;26.83;33.96
35892;BME280;21993;42.672;23.296;2022-10-31T11:54:04;95195.34;;;26.93;33.43
35892;BME280;21993;42.672;23.296;2022-10-31T11:56:40;95204.19;;;27.01;33.24
35892;BME280;21993;42.672;23.296;2022-10-31T11:59:17;95196.25;;;27.06;33.35
35892;BME280;21993;42.672;23.296;2022-10-31T12:01:48;95191.25;;;27.09;33.53
35892;BME280;21993;42.672;23.296;2022-10-31T12:04:14;95182.69;;;27.12;33.05
35892;BME280;21993;42.672;23.296;2022-10-31T12:06:41;95190.00;;;27.24;33.05
35892;BME280;21993;42.672;23.296;2022-10-31T12:09:28;95179.84;;;27.26;33.05
35892;BME280;21993;42.672;23.296;2022-10-31T12:12:13;95178.41;;;27.23;32.33
35892;BME280;21993;42.672;23.296;2022-10-31T12:15:12;95178.78;;;27.27;32.93
35892;BME280;21993;42.672;23.296;2022-10-31T12:26:34;95181.09;;;27.41;32.34
35892;BME280;21993;42.672;23.296;2022-10-31T12:29:26;95176.28;;;27.43;32.32
35892;BME280;21993;42.672;23.296;2022-10-31T12:45:56;95174.09;;;27.64;32.36
35892;BME280;21993;42.672;23.296;2022-10-31T12:48:50;95176.22;;;27.62;32.07
35892;BME280;21993;42.672;23.296;2022-10-31T12:54:26;95173.13;;;27.76;32.15
35892;BME280;21993;42.672;23.296;2022-10-31T12:59:48;95163.97;;;27.77;32.39
35892;BME280;21993;42.672;23.296;2022-10-31T13:04:50;95171.38;;;27.82;32.21
35892;BME280;21993;42.672;23.296;2022-10-31T13:09:58;95174.78;;;27.77;31.74
35892;BME280;21993;42.672;23.296;2022-10-31T13:12:27;95170.88;;;27.73;31.90
35892;BME280;21993;42.672;23.296;2022-10-31T13:14:58;95163.84;;;27.72;32.50
35892;BME280;21993;42.672;23.296;2022-10-31T13:19:51;95158.34;;;27.79;32.34
35892;BME280;21993;42.672;23.296;2022-10-31T13:22:22;95171.28;;;27.59;32.20
35892;BME280;21993;42.672;23.296;2022-10-31T13:27:30;95163.47;;;27.39;33.06
35892;BME280;21993;42.672;23.296;2022-10-31T13:30:13;95165.09;;;27.40;32.92
35892;BME280;21993;42.672;23.296;2022-10-31T13:32:54;95158.78;;;27.34;32.65
35892;BME280;21993;42.672;23.296;2022-10-31T13:35:26;95167.13;;;27.14;33.39
35892;BME280;21993;42.672;23.296;2022-10-31T13:40:44;95167.00;;;27.09;32.95
35892;BME280;21993;42.672;23.296;2022-10-31T13:44:13;95166.44;;;27.01;33.38
35892;BME280;21993;42.672;23.296;2022-10-31T13:46:35;95171.31;;;26.74;33.58
35892;BME280;21993;42.672;23.296;2022-10-31T13:49:04;95169.66;;;26.73;33.70
35892;BME280;21993;42.672;23.296;2022-10-31T13:51:33;95166.38;;;26.71;33.32
35892;BME280;21993;42.672;23.296;2022-10-31T13:56:51;95172.34;;;26.54;33.90
35892;BME280;21993;42.672;23.296;2022-10-31T13:59:26;95161.94;;;26.40;33.72
35892;BME280;21993;42.672;23.296;2022-10-31T14:01:55;95170.00;;;26.40;33.98
35892;BME280;21993;42.672;23.296;2022-10-31T14:04:37;95168.84;;;26.29;34.17
35892;BME280;21993;42.672;23.296;2022-10-31T14:07:14;95172.88;;;26.20;34.39
35892;BME280;21993;42.672;23.296;2022-10-31T14:12:37;95176.25;;;26.15;33.96
35892;BME280;21993;42.672;23.296;2022-10-31T14:15:24;95174.78;;;26.13;34.35
35892;BME280;21993;42.672;23.296;2022-10-31T14:18:00;95172.56;;;26.09;34.32
35892;BME280;21993;42.672;23.296;2022-10-31T14:20:52;95180.56;;;25.91;34.65
35892;BME280;21993;42.672;23.296;2022-10-31T14:28:39;95189.34;;;25.80;34.45
35892;BME280;21993;42.672;23.296;2022-10-31T14:34:22;95189.19;;;25.68;34.62
35892;BME280;21993;42.672;23.296;2022-10-31T14:50:54;95179.03;;;25.39;35.54
35892;BME280;21993;42.672;23.296;2022-10-31T14:53:45;95181.78;;;25.32;36.40
35892;BME280;21993;42.672;23.296;2022-10-31T14:56:19;95186.31;;;25.32;36.18
35892;BME280;21993;42.672;23.296;2022-10-31T14:58:46;95181.56;;;25.27;37.03
35892;BME280;21993;42.672;23.296;2022-10-31T15:01:33;95184.06;;;25.22;36.98
35892;BME280;21993;42.672;23.296;2022-10-31T15:04:09;95179.81;;;25.01;37.99
35892;BME280;21993;42.672;23.296;2022-10-31T15:06:44;95181.69;;;24.94;37.84
35892;BME280;21993;42.672;23.296;2022-10-31T15:09:28;95183.56;;;24.93;37.82
35892;BME280;21993;42.672;23.296;2022-10-31T15:12:00;95188.16;;;24.80;38.44
35892;BME280;21993;42.672;23.296;2022-10-31T15:14:31;95181.75;;;24.81;38.76
35892;BME280;21993;42.672;23.296;2022-10-31T15:17:03;95180.75;;;24.68;38.72
35892;BME280;21993;42.672;23.296;2022-10-31T15:19:32;95183.06;;;24.58;38.83
35892;BME280;21993;42.672;23.296;2022-10-31T15:22:03;95193.44;;;24.41;39.08
35892;BME280;21993;42.672;23.296;2022-10-31T15:24:37;95202.09;;;24.37;39.52
35892;BME280;21993;42.672;23.296;2022-10-31T15:27:04;95193.63;;;24.27;39.62
35892;BME280;21993;42.672;23.296;2022-10-31T15:29:30;95206.03;;;24.14;39.90
35892;BME280;21993;42.672;23.296;2022-10-31T15:32:09;95206.81;;;23.95;40.12
35892;BME280;21993;42.672;23.296;2022-10-31T15:34:43;95211.38;;;23.95;40.04
35892;BME280;21993;42.672;23.296;2022-10-31T15:37:20;95212.41;;;23.80;40.49
35892;BME280;21993;42.672;23.296;2022-10-31T15:39:46;95208.69;;;23.81;40.49
35892;BME280;21993;42.672;23.296;2022-10-31T15:42:38;95216.31;;;23.71;40.49
35892;BME280;21993;42.672;23.296;2022-10-31T15:47:36;95215.00;;;23.41;41.19
35892;BME280;21993;42.672;23.296;2022-10-31T15:50:05;95215.56;;;23.36;41.14